sensor_id;sensor_type;location;lat;lon;timestamp;P1;durP1;ratioP1;P2;durP2;ratioP2
73895;SDS011;73986;50.770;6.080;2024-01-30T00:01:53;8.15;;;3.00;;
73895;SDS011;73986;50.770;6.080;2024-01-30T00:11:59;7.28;;;3.05;;
73895;SDS011;73986;50.770;6.080;2024-01-30T00:22:02;6.85;;;3.30;;
73895;SDS011;73986;50.770;6.080;2024-01-30T00:32:05;6.85;;;3.15;;
73895;SDS011;73986;50.770;6.080;2024-01-30T00:42:08;6.47;;;3.30;;
73895;SDS011;73986;50.770;6.080;2024-01-30T00:52:10;4.75;;;2.25;;
73895;SDS011;73986;50.770;6.080;2024-01-30T01:02:13;6.68;;;2.90;;
73895;SDS011;73986;50.770;6.080;2024-01-30T01:12:17;7.38;;;3.13;;
73895;SDS011;73986;50.770;6.080;2024-01-30T01:22:20;6.03;;;2.35;;
73895;SDS011;73986;50.770;6.080;2024-01-30T01:32:22;7.22;;;2.92;;
73895;SDS011;73986;50.770;6.080;2024-01-30T01:42:25;6.30;;;3.25;;
73895;SDS011;73986;50.770;6.080;2024-01-30T01:52:27;7.32;;;2.90;;
73895;SDS011;73986;50.770;6.080;2024-01-30T02:02:31;6.95;;;3.30;;
73895;SDS011;73986;50.770;6.080;2024-01-30T02:12:37;8.02;;;2.58;;
73895;SDS011;73986;50.770;6.080;2024-01-30T02:22:40;7.78;;;2.50;;
73895;SDS011;73986;50.770;6.080;2024-01-30T02:32:42;6.85;;;2.95;;
73895;SDS011;73986;50.770;6.080;2024-01-30T02:42:45;4.75;;;2.53;;
73895;SDS011;73986;50.770;6.080;2024-01-30T02:52:47;12.13;;;3.10;;
73895;SDS011;73986;50.770;6.080;2024-01-30T03:02:51;7.05;;;2.75;;
73895;SDS011;73986;50.770;6.080;2024-01-30T03:12:52;6.80;;;2.08;;
73895;SDS011;73986;50.770;6.080;2024-01-30T03:22:55;4.78;;;2.67;;
73895;SDS011;73986;50.770;6.080;2024-01-30T03:32:57;7.50;;;2.97;;
73895;SDS011;73986;50.770;6.080;2024-01-30T03:43:00;4.55;;;2.45;;
73895;SDS011;73986;50.770;6.080;2024-01-30T03:53:02;7.85;;;3.17;;
73895;SDS011;73986;50.770;6.080;2024-01-30T04:03:06;6.07;;;2.78;;
73895;SDS011;73986;50.770;6.080;2024-01-30T04:13:08;5.75;;;2.38;;
73895;SDS011;73986;50.770;6.080;2024-01-30T04:23:11;8.98;;;3.63;;
73895;SDS011;73986;50.770;6.080;2024-01-30T04:33:12;9.70;;;3.10;;
73895;SDS011;73986;50.770;6.080;2024-01-30T04:43:15;7.25;;;2.80;;
73895;SDS011;73986;50.770;6.080;2024-01-30T04:53:17;5.43;;;2.78;;
73895;SDS011;73986;50.770;6.080;2024-01-30T05:03:20;4.75;;;2.10;;
73895;SDS011;73986;50.770;6.080;2024-01-30T05:13:22;5.65;;;2.47;;
73895;SDS011;73986;50.770;6.080;2024-01-30T05:23:25;8.45;;;3.05;;
73895;SDS011;73986;50.770;6.080;2024-01-30T05:33:27;5.75;;;2.42;;
73895;SDS011;73986;50.770;6.080;2024-01-30T05:43:30;9.35;;;3.38;;
73895;SDS011;73986;50.770;6.080;2024-01-30T05:53:32;7.00;;;2.45;;
73895;SDS011;73986;50.770;6.080;2024-01-30T06:03:35;6.18;;;2.67;;
73895;SDS011;73986;50.770;6.080;2024-01-30T06:13:37;6.57;;;2.58;;
73895;SDS011;73986;50.770;6.080;2024-01-30T06:23:40;6.20;;;2.83;;
73895;SDS011;73986;50.770;6.080;2024-01-30T06:33:41;6.40;;;3.60;;
73895;SDS011;73986;50.770;6.080;2024-01-30T06:43:44;8.93;;;2.67;;
73895;SDS011;73986;50.770;6.080;2024-01-30T06:53:46;12.23;;;3.22;;
73895;SDS011;73986;50.770;6.080;2024-01-30T07:03:49;6.40;;;3.08;;
73895;SDS011;73986;50.770;6.080;2024-01-30T07:13:51;5.78;;;3.03;;
73895;SDS011;73986;50.770;6.080;2024-01-30T07:23:54;5.00;;;2.55;;
73895;SDS011;73986;50.770;6.080;2024-01-30T07:33:56;8.18;;;2.55;;
73895;SDS011;73986;50.770;6.080;2024-01-30T07:44:01;9.50;;;3.28;;
73895;SDS011;73986;50.770;6.080;2024-01-30T07:54:12;6.82;;;3.30;;
73895;SDS011;73986;50.770;6.080;2024-01-30T08:04:15;8.88;;;3.65;;
73895;SDS011;73986;50.770;6.080;2024-01-30T08:14:17;7.80;;;3.35;;
73895;SDS011;73986;50.770;6.080;2024-01-30T08:24:21;8.02;;;3.63;;
73895;SDS011;73986;50.770;6.080;2024-01-30T08:34:28;7.43;;;3.10;;
73895;SDS011;73986;50.770;6.080;2024-01-30T08:44:31;8.40;;;3.20;;
73895;SDS011;73986;50.770;6.080;2024-01-30T08:54:33;8.18;;;3.75;;
73895;SDS011;73986;50.770;6.080;2024-01-30T09:04:36;8.50;;;3.72;;
73895;SDS011;73986;50.770;6.080;2024-01-30T09:14:38;8.80;;;3.83;;
73895;SDS011;73986;50.770;6.080;2024-01-30T12:28:30;8.57;;;3.78;;
73895;SDS011;73986;50.770;6.080;2024-01-30T12:38:32;7.10;;;3.83;;
73895;SDS011;73986;50.770;6.080;2024-01-30T12:48:35;11.48;;;4.13;;
73895;SDS011;73986;50.770;6.080;2024-01-30T12:58:37;11.70;;;4.18;;
73895;SDS011;73986;50.770;6.080;2024-01-30T13:08:46;16.15;;;4.10;;
73895;SDS011;73986;50.770;6.080;2024-01-30T13:18:53;12.43;;;4.18;;
73895;SDS011;73986;50.770;6.080;2024-01-30T13:51:01;11.88;;;4.20;;
73895;SDS011;73986;50.770;6.080;2024-01-30T14:01:03;12.18;;;5.25;;
73895;SDS011;73986;50.770;6.080;2024-01-30T14:11:06;11.13;;;5.05;;
73895;SDS011;73986;50.770;6.080;2024-01-30T14:21:08;10.73;;;5.10;;
73895;SDS011;73986;50.770;6.080;2024-01-30T14:31:11;11.18;;;5.15;;
73895;SDS011;73986;50.770;6.080;2024-01-30T14:41:17;14.88;;;5.13;;
73895;SDS011;73986;50.770;6.080;2024-01-30T14:51:20;19.85;;;5.10;;
73895;SDS011;73986;50.770;6.080;2024-01-30T15:01:22;12.82;;;3.63;;
73895;SDS011;73986;50.770;6.080;2024-01-30T15:11:25;7.00;;;2.70;;
73895;SDS011;73986;50.770;6.080;2024-01-30T15:21:26;7.93;;;2.42;;
73895;SDS011;73986;50.770;6.080;2024-01-30T15:31:30;10.35;;;2.03;;
73895;SDS011;73986;50.770;6.080;2024-01-30T16:47:55;6.85;;;2.40;;
73895;SDS011;73986;50.770;6.080;2024-01-30T16:58:32;8.48;;;1.40;;
73895;SDS011;73986;50.770;6.080;2024-01-30T17:41:30;4.05;;;1.42;;
73895;SDS011;73986;50.770;6.080;2024-01-30T18:02:24;3.88;;;1.35;;
73895;SDS011;73986;50.770;6.080;2024-01-30T18:12:27;2.35;;;0.95;;
73895;SDS011;73986;50.770;6.080;2024-01-30T18:45:15;7.25;;;2.00;;
73895;SDS011;73986;50.770;6.080;2024-01-30T18:55:26;4.05;;;1.30;;
73895;SDS011;73986;50.770;6.080;2024-01-30T19:05:40;2.17;;;1.10;;
73895;SDS011;73986;50.770;6.080;2024-01-30T19:16:05;5.88;;;1.98;;
73895;SDS011;73986;50.770;6.080;2024-01-30T19:26:08;4.60;;;1.27;;
73895;SDS011;73986;50.770;6.080;2024-01-30T19:36:10;6.72;;;1.55;;
73895;SDS011;73986;50.770;6.080;2024-01-30T19:46:13;2.60;;;1.20;;
73895;SDS011;73986;50.770;6.080;2024-01-30T19:56:15;7.82;;;1.50;;
73895;SDS011;73986;50.770;6.080;2024-01-30T20:06:19;3.67;;;1.23;;
73895;SDS011;73986;50.770;6.080;2024-01-30T20:16:20;3.22;;;1.10;;
73895;SDS011;73986;50.770;6.080;2024-01-30T20:26:25;3.55;;;1.30;;
73895;SDS011;73986;50.770;6.080;2024-01-30T20:36:27;4.47;;;1.50;;
73895;SDS011;73986;50.770;6.080;2024-01-30T20:46:31;3.33;;;1.40;;
73895;SDS011;73986;50.770;6.080;2024-01-30T20:56:32;2.50;;;1.08;;
73895;SDS011;73986;50.770;6.080;2024-01-30T21:06:36;6.32;;;1.60;;
73895;SDS011;73986;50.770;6.080;2024-01-30T21:16:37;7.32;;;2.58;;
73895;SDS011;73986;50.770;6.080;2024-01-30T21:26:40;4.35;;;1.50;;
73895;SDS011;73986;50.770;6.080;2024-01-30T21:36:42;3.83;;;2.00;;
73895;SDS011;73986;50.770;6.080;2024-01-30T21:46:45;6.32;;;2.08;;
73895;SDS011;73986;50.770;6.080;2024-01-30T21:56:47;5.00;;;2.30;;
73895;SDS011;73986;50.770;6.080;2024-01-30T22:06:50;5.50;;;2.05;;
73895;SDS011;73986;50.770;6.080;2024-01-30T22:16:52;4.53;;;1.73;;
73895;SDS011;73986;50.770;6.080;2024-01-30T22:26:55;6.20;;;2.78;;
73895;SDS011;73986;50.770;6.080;2024-01-30T22:36:56;6.70;;;2.47;;
73895;SDS011;73986;50.770;6.080;2024-01-30T22:46:59;9.13;;;2.97;;
73895;SDS011;73986;50.770;6.080;2024-01-30T22:57:01;8.57;;;2.67;;
73895;SDS011;73986;50.770;6.080;2024-01-30T23:07:04;10.50;;;3.35;;
73895;SDS011;73986;50.770;6.080;2024-01-30T23:17:06;7.40;;;2.80;;
73895;SDS011;73986;50.770;6.080;2024-01-30T23:27:10;5.50;;;2.67;;
73895;SDS011;73986;50.770;6.080;2024-01-30T23:37:11;10.05;;;3.42;;
73895;SDS011;73986;50.770;6.080;2024-01-30T23:47:15;9.80;;;3.22;;
73895;SDS011;73986;50.770;6.080;2024-01-30T23:57:16;13.32;;;3.50;;
